sensor_id;sensor_type;location;lat;lon;timestamp;P1;durP1;ratioP1;P2;durP2;ratioP2
69053;SDS011;56125;52.242;4.756;2023-09-19T00:00:32;2.83;;;0.80;;
69053;SDS011;56125;52.242;4.756;2023-09-19T00:05:34;2.63;;;0.80;;
69053;SDS011;56125;52.242;4.756;2023-09-19T00:10:36;1.83;;;0.63;;
69053;SDS011;56125;52.242;4.756;2023-09-19T00:15:42;3.53;;;0.70;;
69053;SDS011;56125;52.242;4.756;2023-09-19T00:20:48;3.20;;;0.80;;
69053;SDS011;56125;52.242;4.756;2023-09-19T00:25:50;2.22;;;0.77;;
69053;SDS011;56125;52.242;4.756;2023-09-19T00:30:51;2.58;;;0.80;;
69053;SDS011;56125;52.242;4.756;2023-09-19T00:35:53;3.08;;;0.90;;
69053;SDS011;56125;52.242;4.756;2023-09-19T00:40:55;2.58;;;0.80;;
69053;SDS011;56125;52.242;4.756;2023-09-19T00:46:00;1.83;;;0.70;;
69053;SDS011;56125;52.242;4.756;2023-09-19T00:51:03;3.22;;;0.77;;
69053;SDS011;56125;52.242;4.756;2023-09-19T00:56:05;2.22;;;0.73;;
69053;SDS011;56125;52.242;4.756;2023-09-19T01:01:07;2.72;;;0.90;;
69053;SDS011;56125;52.242;4.756;2023-09-19T01:06:08;3.75;;;1.13;;
69053;SDS011;56125;52.242;4.756;2023-09-19T01:11:19;1.13;;;0.75;;
69053;SDS011;56125;52.242;4.756;2023-09-19T01:16:32;4.20;;;0.80;;
69053;SDS011;56125;52.242;4.756;2023-09-19T01:32:26;3.83;;;1.00;;
69053;SDS011;56125;52.242;4.756;2023-09-19T01:37:27;1.95;;;0.80;;
69053;SDS011;56125;52.242;4.756;2023-09-19T01:42:37;3.92;;;1.08;;
69053;SDS011;56125;52.242;4.756;2023-09-19T01:47:49;2.15;;;1.00;;
69053;SDS011;56125;52.242;4.756;2023-09-19T01:52:57;2.53;;;0.95;;
69053;SDS011;56125;52.242;4.756;2023-09-19T01:58:08;2.75;;;0.73;;
69053;SDS011;56125;52.242;4.756;2023-09-19T02:03:31;2.50;;;0.88;;
69053;SDS011;56125;52.242;4.756;2023-09-19T02:08:35;7.13;;;1.23;;
69053;SDS011;56125;52.242;4.756;2023-09-19T02:13:37;1.90;;;0.70;;
69053;SDS011;56125;52.242;4.756;2023-09-19T02:18:38;4.55;;;1.45;;
69053;SDS011;56125;52.242;4.756;2023-09-19T02:23:39;2.72;;;0.80;;
69053;SDS011;56125;52.242;4.756;2023-09-19T02:28:41;3.90;;;0.93;;
69053;SDS011;56125;52.242;4.756;2023-09-19T02:33:42;3.42;;;1.20;;
69053;SDS011;56125;52.242;4.756;2023-09-19T02:38:43;2.75;;;0.93;;
69053;SDS011;56125;52.242;4.756;2023-09-19T02:43:44;5.57;;;1.17;;
69053;SDS011;56125;52.242;4.756;2023-09-19T02:48:46;4.03;;;0.93;;
69053;SDS011;56125;52.242;4.756;2023-09-19T02:53:47;1.27;;;0.80;;
69053;SDS011;56125;52.242;4.756;2023-09-19T02:58:49;3.45;;;0.93;;
69053;SDS011;56125;52.242;4.756;2023-09-19T03:03:51;3.60;;;0.90;;
69053;SDS011;56125;52.242;4.756;2023-09-19T03:08:53;2.03;;;0.88;;
69053;SDS011;56125;52.242;4.756;2023-09-19T03:13:57;2.35;;;1.00;;
69053;SDS011;56125;52.242;4.756;2023-09-19T03:18:58;6.05;;;0.90;;
69053;SDS011;56125;52.242;4.756;2023-09-19T03:24:00;2.30;;;0.82;;
69053;SDS011;56125;52.242;4.756;2023-09-19T03:29:03;4.20;;;1.17;;
69053;SDS011;56125;52.242;4.756;2023-09-19T03:34:07;3.83;;;0.98;;
69053;SDS011;56125;52.242;4.756;2023-09-19T03:39:08;3.00;;;1.00;;
69053;SDS011;56125;52.242;4.756;2023-09-19T03:44:09;3.90;;;1.42;;
69053;SDS011;56125;52.242;4.756;2023-09-19T03:49:10;2.53;;;1.00;;
69053;SDS011;56125;52.242;4.756;2023-09-19T03:54:11;2.97;;;0.80;;
69053;SDS011;56125;52.242;4.756;2023-09-19T03:59:13;2.50;;;0.75;;
69053;SDS011;56125;52.242;4.756;2023-09-19T04:04:14;3.92;;;1.00;;
69053;SDS011;56125;52.242;4.756;2023-09-19T04:09:16;2.53;;;0.80;;
69053;SDS011;56125;52.242;4.756;2023-09-19T04:14:17;3.65;;;0.80;;
69053;SDS011;56125;52.242;4.756;2023-09-19T04:19:18;2.80;;;1.13;;
69053;SDS011;56125;52.242;4.756;2023-09-19T04:24:19;3.35;;;0.80;;
69053;SDS011;56125;52.242;4.756;2023-09-19T04:29:20;3.55;;;0.90;;
69053;SDS011;56125;52.242;4.756;2023-09-19T04:34:21;4.20;;;0.90;;
69053;SDS011;56125;52.242;4.756;2023-09-19T04:39:22;3.33;;;1.20;;
69053;SDS011;56125;52.242;4.756;2023-09-19T04:44:25;2.83;;;1.02;;
69053;SDS011;56125;52.242;4.756;2023-09-19T04:49:26;2.90;;;1.10;;
69053;SDS011;56125;52.242;4.756;2023-09-19T04:54:27;3.80;;;1.05;;
69053;SDS011;56125;52.242;4.756;2023-09-19T04:59:28;3.50;;;0.90;;
69053;SDS011;56125;52.242;4.756;2023-09-19T05:04:29;3.75;;;0.90;;
69053;SDS011;56125;52.242;4.756;2023-09-19T05:09:30;2.13;;;0.80;;
69053;SDS011;56125;52.242;4.756;2023-09-19T05:14:34;4.35;;;0.85;;
69053;SDS011;56125;52.242;4.756;2023-09-19T05:19:35;4.35;;;0.98;;
69053;SDS011;56125;52.242;4.756;2023-09-19T05:24:37;5.00;;;1.15;;
69053;SDS011;56125;52.242;4.756;2023-09-19T05:29:39;4.53;;;1.08;;
69053;SDS011;56125;52.242;4.756;2023-09-19T05:34:42;2.15;;;0.77;;
69053;SDS011;56125;52.242;4.756;2023-09-19T05:39:43;3.25;;;1.02;;
69053;SDS011;56125;52.242;4.756;2023-09-19T05:44:44;5.55;;;1.40;;
69053;SDS011;56125;52.242;4.756;2023-09-19T05:49:45;5.43;;;1.50;;
69053;SDS011;56125;52.242;4.756;2023-09-19T05:54:46;5.45;;;1.48;;
69053;SDS011;56125;52.242;4.756;2023-09-19T05:59:47;9.30;;;1.80;;
69053;SDS011;56125;52.242;4.756;2023-09-19T06:04:51;5.68;;;1.65;;
69053;SDS011;56125;52.242;4.756;2023-09-19T06:09:53;4.88;;;1.38;;
69053;SDS011;56125;52.242;4.756;2023-09-19T06:14:54;5.70;;;1.65;;
69053;SDS011;56125;52.242;4.756;2023-09-19T06:19:55;8.70;;;2.45;;
69053;SDS011;56125;52.242;4.756;2023-09-19T06:24:56;7.72;;;1.25;;
69053;SDS011;56125;52.242;4.756;2023-09-19T06:29:57;4.47;;;1.50;;
69053;SDS011;56125;52.242;4.756;2023-09-19T06:34:58;7.53;;;1.40;;
69053;SDS011;56125;52.242;4.756;2023-09-19T06:39:59;9.27;;;1.80;;
69053;SDS011;56125;52.242;4.756;2023-09-19T06:45:01;6.38;;;1.95;;
69053;SDS011;56125;52.242;4.756;2023-09-19T06:50:02;4.80;;;1.33;;
69053;SDS011;56125;52.242;4.756;2023-09-19T06:55:03;6.05;;;1.30;;
69053;SDS011;56125;52.242;4.756;2023-09-19T07:00:06;4.63;;;1.30;;
69053;SDS011;56125;52.242;4.756;2023-09-19T07:05:17;7.03;;;1.50;;
69053;SDS011;56125;52.242;4.756;2023-09-19T07:10:19;5.35;;;1.30;;
69053;SDS011;56125;52.242;4.756;2023-09-19T07:15:20;6.85;;;1.58;;
69053;SDS011;56125;52.242;4.756;2023-09-19T07:20:24;4.63;;;1.38;;
69053;SDS011;56125;52.242;4.756;2023-09-19T07:25:30;5.15;;;1.35;;
69053;SDS011;56125;52.242;4.756;2023-09-19T07:30:31;5.75;;;1.50;;
69053;SDS011;56125;52.242;4.756;2023-09-19T07:35:32;5.22;;;1.20;;
69053;SDS011;56125;52.242;4.756;2023-09-19T07:40:34;8.98;;;1.65;;
69053;SDS011;56125;52.242;4.756;2023-09-19T07:45:35;8.40;;;1.52;;
69053;SDS011;56125;52.242;4.756;2023-09-19T07:50:36;6.60;;;1.20;;
69053;SDS011;56125;52.242;4.756;2023-09-19T07:55:37;6.20;;;1.30;;
69053;SDS011;56125;52.242;4.756;2023-09-19T08:00:38;8.70;;;1.50;;
69053;SDS011;56125;52.242;4.756;2023-09-19T08:05:40;4.13;;;1.02;;
69053;SDS011;56125;52.242;4.756;2023-09-19T08:10:43;7.03;;;1.50;;
69053;SDS011;56125;52.242;4.756;2023-09-19T08:15:46;5.55;;;1.67;;
69053;SDS011;56125;52.242;4.756;2023-09-19T08:20:51;8.73;;;1.80;;
69053;SDS011;56125;52.242;4.756;2023-09-19T08:25:56;9.50;;;1.90;;
69053;SDS011;56125;52.242;4.756;2023-09-19T08:31:04;6.95;;;1.50;;
69053;SDS011;56125;52.242;4.756;2023-09-19T08:36:06;5.50;;;1.40;;
69053;SDS011;56125;52.242;4.756;2023-09-19T08:41:07;8.32;;;1.60;;
69053;SDS011;56125;52.242;4.756;2023-09-19T08:46:14;4.82;;;1.52;;
69053;SDS011;56125;52.242;4.756;2023-09-19T08:51:24;6.53;;;1.48;;
69053;SDS011;56125;52.242;4.756;2023-09-19T08:56:29;4.85;;;1.40;;
69053;SDS011;56125;52.242;4.756;2023-09-19T09:01:33;4.93;;;1.70;;
69053;SDS011;56125;52.242;4.756;2023-09-19T09:06:35;4.80;;;1.30;;
69053;SDS011;56125;52.242;4.756;2023-09-19T09:11:36;5.63;;;1.20;;
69053;SDS011;56125;52.242;4.756;2023-09-19T09:16:40;5.15;;;1.10;;
69053;SDS011;56125;52.242;4.756;2023-09-19T09:21:41;7.63;;;1.90;;
69053;SDS011;56125;52.242;4.756;2023-09-19T09:26:42;6.53;;;1.30;;
69053;SDS011;56125;52.242;4.756;2023-09-19T09:31:43;6.97;;;1.67;;
69053;SDS011;56125;52.242;4.756;2023-09-19T09:36:44;6.65;;;1.30;;
69053;SDS011;56125;52.242;4.756;2023-09-19T09:41:48;6.03;;;1.27;;
69053;SDS011;56125;52.242;4.756;2023-09-19T09:46:49;3.67;;;1.13;;
69053;SDS011;56125;52.242;4.756;2023-09-19T09:52:06;5.00;;;1.40;;
69053;SDS011;56125;52.242;4.756;2023-09-19T09:57:09;5.75;;;1.60;;
69053;SDS011;56125;52.242;4.756;2023-09-19T10:02:14;9.13;;;1.77;;
69053;SDS011;56125;52.242;4.756;2023-09-19T10:07:30;4.00;;;1.40;;
69053;SDS011;56125;52.242;4.756;2023-09-19T10:12:58;6.47;;;1.63;;
69053;SDS011;56125;52.242;4.756;2023-09-19T10:18:04;4.95;;;1.17;;
69053;SDS011;56125;52.242;4.756;2023-09-19T10:23:11;5.43;;;1.52;;
69053;SDS011;56125;52.242;4.756;2023-09-19T10:28:14;6.13;;;1.50;;
69053;SDS011;56125;52.242;4.756;2023-09-19T10:33:17;5.97;;;2.13;;
69053;SDS011;56125;52.242;4.756;2023-09-19T10:38:24;6.95;;;1.60;;
69053;SDS011;56125;52.242;4.756;2023-09-19T10:43:29;6.97;;;1.30;;
69053;SDS011;56125;52.242;4.756;2023-09-19T10:48:36;5.32;;;1.25;;
69053;SDS011;56125;52.242;4.756;2023-09-19T10:53:54;9.57;;;1.42;;
69053;SDS011;56125;52.242;4.756;2023-09-19T10:59:10;6.00;;;1.30;;
69053;SDS011;56125;52.242;4.756;2023-09-19T11:09:46;12.38;;;1.25;;
69053;SDS011;56125;52.242;4.756;2023-09-19T11:14:59;4.90;;;1.15;;
69053;SDS011;56125;52.242;4.756;2023-09-19T11:41:46;5.80;;;0.95;;
69053;SDS011;56125;52.242;4.756;2023-09-19T11:46:52;4.13;;;1.10;;
69053;SDS011;56125;52.242;4.756;2023-09-19T11:51:56;4.80;;;1.25;;
69053;SDS011;56125;52.242;4.756;2023-09-19T11:56:58;3.22;;;1.20;;
69053;SDS011;56125;52.242;4.756;2023-09-19T12:02:06;5.45;;;1.30;;
69053;SDS011;56125;52.242;4.756;2023-09-19T12:07:12;6.53;;;1.20;;
69053;SDS011;56125;52.242;4.756;2023-09-19T12:12:20;5.75;;;1.02;;
69053;SDS011;56125;52.242;4.756;2023-09-19T12:17:37;2.80;;;1.10;;
69053;SDS011;56125;52.242;4.756;2023-09-19T12:22:39;3.53;;;1.00;;
69053;SDS011;56125;52.242;4.756;2023-09-19T12:27:48;3.90;;;1.42;;
69053;SDS011;56125;52.242;4.756;2023-09-19T12:32:53;3.25;;;0.90;;
69053;SDS011;56125;52.242;4.756;2023-09-19T12:37:56;1.30;;;0.90;;
69053;SDS011;56125;52.242;4.756;2023-09-19T12:42:57;3.30;;;1.00;;
69053;SDS011;56125;52.242;4.756;2023-09-19T12:48:17;2.38;;;0.70;;
69053;SDS011;56125;52.242;4.756;2023-09-19T12:53:26;3.33;;;0.90;;
69053;SDS011;56125;52.242;4.756;2023-09-19T12:58:29;3.90;;;0.98;;
69053;SDS011;56125;52.242;4.756;2023-09-19T13:03:31;4.15;;;1.13;;
69053;SDS011;56125;52.242;4.756;2023-09-19T13:08:37;3.70;;;1.60;;
69053;SDS011;56125;52.242;4.756;2023-09-19T13:18:43;3.35;;;1.40;;
69053;SDS011;56125;52.242;4.756;2023-09-19T13:23:45;2.67;;;1.10;;
69053;SDS011;56125;52.242;4.756;2023-09-19T13:28:46;2.75;;;1.05;;
69053;SDS011;56125;52.242;4.756;2023-09-19T13:33:49;4.85;;;1.50;;
69053;SDS011;56125;52.242;4.756;2023-09-19T13:38:52;1.38;;;0.85;;
69053;SDS011;56125;52.242;4.756;2023-09-19T13:43:53;3.33;;;1.00;;
69053;SDS011;56125;52.242;4.756;2023-09-19T13:48:57;3.13;;;1.02;;
69053;SDS011;56125;52.242;4.756;2023-09-19T13:53:59;5.43;;;1.10;;
69053;SDS011;56125;52.242;4.756;2023-09-19T13:59:00;5.13;;;1.30;;
69053;SDS011;56125;52.242;4.756;2023-09-19T14:04:01;3.70;;;1.00;;
69053;SDS011;56125;52.242;4.756;2023-09-19T14:09:03;2.78;;;1.17;;
69053;SDS011;56125;52.242;4.756;2023-09-19T14:14:04;3.70;;;1.05;;
69053;SDS011;56125;52.242;4.756;2023-09-19T14:19:06;2.60;;;1.10;;
69053;SDS011;56125;52.242;4.756;2023-09-19T14:24:08;2.50;;;1.10;;
69053;SDS011;56125;52.242;4.756;2023-09-19T14:29:10;3.33;;;1.10;;
69053;SDS011;56125;52.242;4.756;2023-09-19T14:34:12;3.30;;;1.20;;
69053;SDS011;56125;52.242;4.756;2023-09-19T14:39:13;3.65;;;1.25;;
69053;SDS011;56125;52.242;4.756;2023-09-19T14:44:14;3.90;;;1.10;;
69053;SDS011;56125;52.242;4.756;2023-09-19T14:49:18;2.05;;;1.17;;
69053;SDS011;56125;52.242;4.756;2023-09-19T14:54:19;3.50;;;1.23;;
69053;SDS011;56125;52.242;4.756;2023-09-19T14:59:21;3.78;;;1.48;;
69053;SDS011;56125;52.242;4.756;2023-09-19T15:04:22;2.45;;;1.10;;
69053;SDS011;56125;52.242;4.756;2023-09-19T15:09:24;4.93;;;1.50;;
69053;SDS011;56125;52.242;4.756;2023-09-19T15:14:26;5.22;;;1.20;;
69053;SDS011;56125;52.242;4.756;2023-09-19T15:19:27;3.40;;;1.15;;
69053;SDS011;56125;52.242;4.756;2023-09-19T15:24:28;1.98;;;1.10;;
69053;SDS011;56125;52.242;4.756;2023-09-19T15:29:30;3.65;;;1.30;;
69053;SDS011;56125;52.242;4.756;2023-09-19T15:34:31;3.72;;;1.50;;
69053;SDS011;56125;52.242;4.756;2023-09-19T15:39:32;3.08;;;1.20;;
69053;SDS011;56125;52.242;4.756;2023-09-19T15:44:37;4.57;;;1.27;;
69053;SDS011;56125;52.242;4.756;2023-09-19T15:49:38;8.65;;;1.23;;
69053;SDS011;56125;52.242;4.756;2023-09-19T15:54:39;3.83;;;1.20;;
69053;SDS011;56125;52.242;4.756;2023-09-19T15:59:45;4.97;;;1.50;;
69053;SDS011;56125;52.242;4.756;2023-09-19T16:04:48;5.47;;;1.20;;
69053;SDS011;56125;52.242;4.756;2023-09-19T16:09:49;3.80;;;1.30;;
69053;SDS011;56125;52.242;4.756;2023-09-19T16:14:50;3.95;;;1.30;;
69053;SDS011;56125;52.242;4.756;2023-09-19T16:19:51;7.40;;;1.50;;
69053;SDS011;56125;52.242;4.756;2023-09-19T16:24:52;6.38;;;1.40;;
69053;SDS011;56125;52.242;4.756;2023-09-19T16:29:54;3.53;;;1.55;;
69053;SDS011;56125;52.242;4.756;2023-09-19T16:34:55;3.97;;;1.50;;
69053;SDS011;56125;52.242;4.756;2023-09-19T16:39:56;4.00;;;1.52;;
69053;SDS011;56125;52.242;4.756;2023-09-19T16:44:57;5.57;;;1.92;;
69053;SDS011;56125;52.242;4.756;2023-09-19T16:49:58;5.70;;;1.80;;
69053;SDS011;56125;52.242;4.756;2023-09-19T16:54:59;5.90;;;2.03;;
69053;SDS011;56125;52.242;4.756;2023-09-19T17:00:01;4.45;;;1.95;;
69053;SDS011;56125;52.242;4.756;2023-09-19T17:05:03;6.90;;;2.00;;
69053;SDS011;56125;52.242;4.756;2023-09-19T17:10:05;5.10;;;1.73;;
69053;SDS011;56125;52.242;4.756;2023-09-19T17:15:06;5.90;;;1.80;;
69053;SDS011;56125;52.242;4.756;2023-09-19T17:20:08;5.72;;;1.80;;
69053;SDS011;56125;52.242;4.756;2023-09-19T17:25:09;7.93;;;1.30;;
69053;SDS011;56125;52.242;4.756;2023-09-19T17:30:13;5.03;;;1.48;;
69053;SDS011;56125;52.242;4.756;2023-09-19T17:35:15;4.60;;;1.48;;
69053;SDS011;56125;52.242;4.756;2023-09-19T17:40:18;5.55;;;2.30;;
69053;SDS011;56125;52.242;4.756;2023-09-19T17:45:19;7.10;;;1.73;;
69053;SDS011;56125;52.242;4.756;2023-09-19T17:50:20;8.45;;;1.80;;
69053;SDS011;56125;52.242;4.756;2023-09-19T17:55:21;7.60;;;1.60;;
69053;SDS011;56125;52.242;4.756;2023-09-19T18:00:22;5.28;;;1.75;;
69053;SDS011;56125;52.242;4.756;2023-09-19T18:05:23;7.22;;;1.48;;
69053;SDS011;56125;52.242;4.756;2023-09-19T18:10:24;3.50;;;1.52;;
69053;SDS011;56125;52.242;4.756;2023-09-19T18:15:26;3.00;;;1.42;;
69053;SDS011;56125;52.242;4.756;2023-09-19T18:20:34;5.10;;;1.77;;
69053;SDS011;56125;52.242;4.756;2023-09-19T18:25:35;4.35;;;1.70;;
69053;SDS011;56125;52.242;4.756;2023-09-19T18:30:38;2.72;;;1.42;;
69053;SDS011;56125;52.242;4.756;2023-09-19T18:35:39;6.05;;;1.67;;
69053;SDS011;56125;52.242;4.756;2023-09-19T18:40:44;5.30;;;1.70;;
69053;SDS011;56125;52.242;4.756;2023-09-19T18:45:54;3.22;;;1.42;;
69053;SDS011;56125;52.242;4.756;2023-09-19T18:51:03;2.70;;;1.33;;
69053;SDS011;56125;52.242;4.756;2023-09-19T18:56:09;2.95;;;1.55;;
69053;SDS011;56125;52.242;4.756;2023-09-19T19:01:18;4.22;;;1.55;;
69053;SDS011;56125;52.242;4.756;2023-09-19T19:06:19;2.72;;;1.45;;
69053;SDS011;56125;52.242;4.756;2023-09-19T19:11:22;2.50;;;1.70;;
69053;SDS011;56125;52.242;4.756;2023-09-19T19:16:26;2.95;;;1.50;;
69053;SDS011;56125;52.242;4.756;2023-09-19T19:21:27;3.50;;;1.40;;
69053;SDS011;56125;52.242;4.756;2023-09-19T19:26:28;4.45;;;1.60;;
69053;SDS011;56125;52.242;4.756;2023-09-19T19:31:29;4.40;;;1.65;;
69053;SDS011;56125;52.242;4.756;2023-09-19T19:36:33;3.33;;;1.38;;
69053;SDS011;56125;52.242;4.756;2023-09-19T19:41:34;5.57;;;1.80;;
69053;SDS011;56125;52.242;4.756;2023-09-19T19:46:38;4.65;;;1.60;;
69053;SDS011;56125;52.242;4.756;2023-09-19T19:51:39;3.38;;;1.60;;
69053;SDS011;56125;52.242;4.756;2023-09-19T19:56:42;3.15;;;1.27;;
69053;SDS011;56125;52.242;4.756;2023-09-19T20:01:43;3.78;;;1.40;;
69053;SDS011;56125;52.242;4.756;2023-09-19T20:06:44;5.28;;;1.60;;
69053;SDS011;56125;52.242;4.756;2023-09-19T20:11:45;4.47;;;1.50;;
69053;SDS011;56125;52.242;4.756;2023-09-19T20:16:47;2.10;;;1.20;;
69053;SDS011;56125;52.242;4.756;2023-09-19T20:21:48;3.53;;;1.48;;
69053;SDS011;56125;52.242;4.756;2023-09-19T20:26:49;3.42;;;1.20;;
69053;SDS011;56125;52.242;4.756;2023-09-19T20:31:52;2.92;;;1.45;;
69053;SDS011;56125;52.242;4.756;2023-09-19T20:36:54;5.13;;;1.95;;
69053;SDS011;56125;52.242;4.756;2023-09-19T20:41:55;3.00;;;1.40;;
69053;SDS011;56125;52.242;4.756;2023-09-19T20:46:56;3.10;;;1.63;;
69053;SDS011;56125;52.242;4.756;2023-09-19T20:51:58;2.50;;;1.30;;
69053;SDS011;56125;52.242;4.756;2023-09-19T20:56:59;4.28;;;1.50;;
69053;SDS011;56125;52.242;4.756;2023-09-19T21:02:00;3.25;;;1.60;;
69053;SDS011;56125;52.242;4.756;2023-09-19T21:07:01;4.18;;;1.75;;
69053;SDS011;56125;52.242;4.756;2023-09-19T21:12:03;4.47;;;1.92;;
69053;SDS011;56125;52.242;4.756;2023-09-19T21:17:04;3.22;;;1.30;;
69053;SDS011;56125;52.242;4.756;2023-09-19T21:22:05;2.75;;;1.38;;
69053;SDS011;56125;52.242;4.756;2023-09-19T21:27:06;1.80;;;1.17;;
69053;SDS011;56125;52.242;4.756;2023-09-19T21:32:07;2.50;;;1.30;;
69053;SDS011;56125;52.242;4.756;2023-09-19T21:37:09;3.45;;;1.50;;
69053;SDS011;56125;52.242;4.756;2023-09-19T21:42:14;4.32;;;1.60;;
69053;SDS011;56125;52.242;4.756;2023-09-19T21:47:15;3.13;;;1.60;;
69053;SDS011;56125;52.242;4.756;2023-09-19T21:52:16;2.97;;;1.30;;
69053;SDS011;56125;52.242;4.756;2023-09-19T21:57:17;4.82;;;1.42;;
69053;SDS011;56125;52.242;4.756;2023-09-19T22:02:18;4.45;;;1.75;;
69053;SDS011;56125;52.242;4.756;2023-09-19T22:07:19;4.00;;;1.50;;
69053;SDS011;56125;52.242;4.756;2023-09-19T22:12:20;3.33;;;1.52;;
69053;SDS011;56125;52.242;4.756;2023-09-19T22:17:21;3.65;;;1.65;;
69053;SDS011;56125;52.242;4.756;2023-09-19T22:22:23;3.15;;;1.50;;
69053;SDS011;56125;52.242;4.756;2023-09-19T22:27:25;4.38;;;1.40;;
69053;SDS011;56125;52.242;4.756;2023-09-19T22:32:27;5.07;;;1.42;;
69053;SDS011;56125;52.242;4.756;2023-09-19T22:37:28;3.47;;;1.60;;
69053;SDS011;56125;52.242;4.756;2023-09-19T22:42:29;3.38;;;1.50;;
69053;SDS011;56125;52.242;4.756;2023-09-19T22:47:30;3.20;;;1.58;;
69053;SDS011;56125;52.242;4.756;2023-09-19T22:52:31;2.70;;;1.48;;
69053;SDS011;56125;52.242;4.756;2023-09-19T22:57:36;5.32;;;1.63;;
69053;SDS011;56125;52.242;4.756;2023-09-19T23:02:37;3.83;;;1.73;;
69053;SDS011;56125;52.242;4.756;2023-09-19T23:07:42;3.47;;;1.60;;
69053;SDS011;56125;52.242;4.756;2023-09-19T23:12:48;4.88;;;1.60;;
69053;SDS011;56125;52.242;4.756;2023-09-19T23:17:49;4.07;;;1.80;;
69053;SDS011;56125;52.242;4.756;2023-09-19T23:22:51;2.70;;;1.70;;
69053;SDS011;56125;52.242;4.756;2023-09-19T23:27:54;6.05;;;1.70;;
69053;SDS011;56125;52.242;4.756;2023-09-19T23:33:02;3.60;;;1.90;;
69053;SDS011;56125;52.242;4.756;2023-09-19T23:38:04;3.45;;;1.50;;
69053;SDS011;56125;52.242;4.756;2023-09-19T23:43:07;4.22;;;1.65;;
69053;SDS011;56125;52.242;4.756;2023-09-19T23:48:12;8.85;;;1.63;;
69053;SDS011;56125;52.242;4.756;2023-09-19T23:53:13;2.78;;;1.40;;
69053;SDS011;56125;52.242;4.756;2023-09-19T23:58:14;4.22;;;1.60;;
